createdAt,value
2022-12-08T00:00:36.413Z,0.00
2022-12-08T00:01:36.444Z,0.00
2022-12-08T00:02:36.548Z,0.00
2022-12-08T00:03:36.429Z,0.00
2022-12-08T00:04:36.381Z,0.00
2022-12-08T00:05:36.370Z,0.00
2022-12-08T00:06:36.342Z,0.00
2022-12-08T00:07:36.369Z,0.00
2022-12-08T00:08:36.333Z,0.00
2022-12-08T00:09:38.950Z,0.00
2022-12-08T00:10:51.786Z,0.00
2022-12-08T00:11:37.294Z,0.00
2022-12-08T00:12:36.269Z,0.00
2022-12-08T00:13:36.274Z,0.00
2022-12-08T00:14:36.265Z,0.00
2022-12-08T00:15:36.242Z,0.00
2022-12-08T00:16:36.352Z,0.00
2022-12-08T00:17:37.017Z,0.00
2022-12-08T00:18:36.222Z,0.00
2022-12-08T00:19:36.198Z,0.00
2022-12-08T00:20:36.175Z,0.00
2022-12-08T00:21:36.169Z,0.00
2022-12-08T00:22:36.210Z,0.00
2022-12-08T00:23:36.150Z,0.00
2022-12-08T00:24:36.154Z,0.00
2022-12-08T00:25:36.153Z,0.00
2022-12-08T00:26:36.118Z,0.00
2022-12-08T00:27:36.161Z,0.00
2022-12-08T00:28:36.093Z,0.00
2022-12-08T00:29:36.093Z,0.00
2022-12-08T00:30:36.082Z,0.00
2022-12-08T00:31:36.090Z,0.00
2022-12-08T00:32:36.071Z,0.00
2022-12-08T00:33:36.050Z,0.00
2022-12-08T00:34:36.042Z,0.00
2022-12-08T00:35:41.531Z,0.00
2022-12-08T00:36:37.010Z,0.00
2022-12-08T00:37:36.010Z,0.00
2022-12-08T00:38:36.011Z,0.00
2022-12-08T00:39:35.978Z,0.00
2022-12-08T00:40:35.966Z,0.00
2022-12-08T00:41:35.970Z,0.00
2022-12-08T00:42:35.942Z,0.00
2022-12-08T00:43:35.950Z,0.00
2022-12-08T00:44:35.945Z,0.00
2022-12-08T00:45:35.942Z,0.00
2022-12-08T00:46:35.903Z,0.00
2022-12-08T00:47:35.889Z,0.00
2022-12-08T00:48:35.893Z,0.00
2022-12-08T00:49:35.878Z,0.00
2022-12-08T00:50:35.886Z,0.00
2022-12-08T00:51:35.863Z,0.00
2022-12-08T00:52:35.838Z,0.00
2022-12-08T00:53:35.830Z,0.00
2022-12-08T00:54:35.830Z,0.00
2022-12-08T00:55:35.812Z,0.00
2022-12-08T00:56:35.790Z,0.00
2022-12-08T00:57:35.780Z,0.00
2022-12-08T00:58:35.759Z,0.00
2022-12-08T00:59:35.782Z,0.00
2022-12-08T01:00:35.731Z,0.00
2022-12-08T01:01:35.846Z,0.00
2022-12-08T01:02:35.721Z,0.00
2022-12-08T01:03:35.793Z,0.00
2022-12-08T01:04:35.721Z,0.00
2022-12-08T01:05:35.712Z,0.00
2022-12-08T01:06:35.677Z,0.00
2022-12-08T01:07:35.763Z,0.00
2022-12-08T01:08:35.658Z,0.00
2022-12-08T01:09:35.662Z,0.00
2022-12-08T01:10:35.683Z,0.00
2022-12-08T01:11:35.630Z,0.00
2022-12-08T01:12:35.603Z,0.00
2022-12-08T01:13:35.622Z,0.00
2022-12-08T01:14:35.591Z,0.00
2022-12-08T01:15:35.619Z,0.00
2022-12-08T01:16:35.657Z,0.00
2022-12-08T01:17:35.558Z,0.00
2022-12-08T01:18:35.552Z,0.00
2022-12-08T01:19:35.553Z,0.00
2022-12-08T01:20:35.538Z,0.00
2022-12-08T01:21:35.510Z,0.00
2022-12-08T01:22:35.510Z,0.00
2022-12-08T01:23:35.534Z,0.00
2022-12-08T01:24:35.498Z,0.00
2022-12-08T01:25:35.571Z,0.00
2022-12-08T01:26:35.454Z,0.00
2022-12-08T01:27:35.484Z,0.00
2022-12-08T01:28:35.431Z,0.00
2022-12-08T01:29:35.421Z,0.00
2022-12-08T01:30:35.498Z,0.00
2022-12-08T01:31:35.427Z,0.00
2022-12-08T01:32:35.387Z,0.00
2022-12-08T01:33:35.385Z,0.00
2022-12-08T01:34:35.370Z,0.00
2022-12-08T01:35:35.388Z,0.00
2022-12-08T01:36:35.352Z,0.00
2022-12-08T01:37:35.348Z,0.00
2022-12-08T01:38:35.351Z,0.00
2022-12-08T01:39:35.319Z,0.00
2022-12-08T01:40:35.308Z,0.00
2022-12-08T01:41:35.309Z,0.00
2022-12-08T01:42:35.279Z,0.00
2022-12-08T01:43:35.279Z,0.00
2022-12-08T01:44:35.300Z,0.00
2022-12-08T01:45:35.247Z,0.00
2022-12-08T01:46:35.313Z,0.00
2022-12-08T01:47:35.338Z,0.00
2022-12-08T01:48:35.228Z,0.00
2022-12-08T01:49:35.219Z,0.00
2022-12-08T01:50:35.188Z,0.00
2022-12-08T01:51:35.207Z,0.00
2022-12-08T01:52:35.184Z,0.00
2022-12-08T01:53:35.170Z,0.00
2022-12-08T01:54:35.161Z,0.00
2022-12-08T01:55:35.148Z,0.00
2022-12-08T01:56:35.148Z,0.00
2022-12-08T01:57:35.148Z,0.00
2022-12-08T01:58:35.108Z,0.00
2022-12-08T01:59:35.109Z,0.00
2022-12-08T02:00:35.087Z,0.00
2022-12-08T02:01:35.158Z,0.00
2022-12-08T02:02:35.157Z,0.00
2022-12-08T02:03:35.060Z,0.00
2022-12-08T02:04:35.059Z,0.00
2022-12-08T02:05:35.027Z,0.00
2022-12-08T02:06:35.037Z,0.00
2022-12-08T02:07:35.008Z,0.00
2022-12-08T02:08:35.028Z,0.00
2022-12-08T02:09:34.988Z,0.00
2022-12-08T02:10:34.987Z,0.00
2022-12-08T02:11:34.969Z,0.00
2022-12-08T02:12:34.956Z,0.00
2022-12-08T02:13:34.973Z,0.00
2022-12-08T02:14:34.929Z,0.00
2022-12-08T02:15:35.005Z,0.00
2022-12-08T02:16:34.948Z,0.00
2022-12-08T02:17:34.921Z,0.00
2022-12-08T02:18:34.895Z,0.00
2022-12-08T02:19:34.896Z,0.00
2022-12-08T02:20:34.883Z,0.00
2022-12-08T02:21:34.857Z,0.00
2022-12-08T02:22:34.849Z,0.00
2022-12-08T02:23:34.870Z,0.00
2022-12-08T02:24:34.828Z,0.00
2022-12-08T02:25:34.808Z,0.00
2022-12-08T02:26:34.820Z,0.00
2022-12-08T02:27:34.784Z,0.00
2022-12-08T02:28:34.778Z,0.00
2022-12-08T02:29:34.949Z,0.00
2022-12-08T02:30:34.797Z,0.00
2022-12-08T02:31:34.748Z,0.00
2022-12-08T02:32:34.728Z,0.00
2022-12-08T02:33:34.724Z,0.00
2022-12-08T02:34:34.736Z,0.00
2022-12-08T02:35:34.697Z,0.00
2022-12-08T02:36:34.690Z,0.00
2022-12-08T02:37:34.680Z,0.00
2022-12-08T02:38:34.657Z,0.00
2022-12-08T02:39:34.669Z,0.00
2022-12-08T02:40:34.670Z,0.00
2022-12-08T02:41:34.616Z,0.00
2022-12-08T02:42:34.629Z,0.00
2022-12-08T02:43:34.597Z,0.00
2022-12-08T02:44:34.617Z,0.00
2022-12-08T02:45:34.576Z,0.00
2022-12-08T02:46:34.600Z,0.00
2022-12-08T02:47:34.568Z,0.00
2022-12-08T02:48:34.556Z,0.00
2022-12-08T02:49:34.525Z,0.00
2022-12-08T02:50:34.557Z,0.00
2022-12-08T02:51:34.509Z,0.00
2022-12-08T02:52:34.506Z,0.00
2022-12-08T02:53:34.493Z,0.00
2022-12-08T02:54:34.490Z,0.00
2022-12-08T02:55:34.479Z,0.00
2022-12-08T02:56:34.458Z,0.00
2022-12-08T02:57:34.530Z,0.00
2022-12-08T02:58:34.488Z,0.00
2022-12-08T02:59:34.425Z,0.00
2022-12-08T03:00:34.429Z,0.00
2022-12-08T03:01:34.495Z,0.00
2022-12-08T03:02:34.485Z,0.00
2022-12-08T03:03:34.365Z,0.00
2022-12-08T03:04:34.377Z,0.00
2022-12-08T03:05:34.357Z,0.00
2022-12-08T03:06:34.358Z,0.00
2022-12-08T03:07:34.333Z,0.00
2022-12-08T03:08:34.329Z,0.00
2022-12-08T03:09:34.310Z,0.00
2022-12-08T03:10:34.317Z,0.00
2022-12-08T03:11:34.286Z,0.00
2022-12-08T03:12:34.297Z,0.00
2022-12-08T03:13:34.257Z,0.00
2022-12-08T03:14:34.258Z,0.00
2022-12-08T03:15:34.287Z,0.00
2022-12-08T03:16:34.266Z,0.00
2022-12-08T03:17:34.221Z,0.00
2022-12-08T03:18:34.227Z,0.00
2022-12-08T03:19:34.185Z,0.00
2022-12-08T03:20:34.206Z,0.00
2022-12-08T03:21:34.185Z,0.00
2022-12-08T03:22:34.177Z,0.00
2022-12-08T03:23:34.146Z,0.00
2022-12-08T03:24:34.166Z,0.00
2022-12-08T03:25:34.153Z,0.00
2022-12-08T03:26:34.139Z,0.00
2022-12-08T03:27:34.104Z,0.00
2022-12-08T03:28:34.137Z,0.00
2022-12-08T03:29:34.076Z,0.00
2022-12-08T03:30:34.098Z,0.00
2022-12-08T03:31:34.119Z,0.00
2022-12-08T03:32:34.087Z,0.00
2022-12-08T03:33:34.054Z,0.00
2022-12-08T03:34:34.034Z,0.00
2022-12-08T03:35:34.054Z,0.00
2022-12-08T03:36:34.013Z,0.00
2022-12-08T03:37:33.998Z,0.00
2022-12-08T03:38:33.986Z,0.00
2022-12-08T03:39:33.990Z,0.00
2022-12-08T03:40:33.966Z,0.00
2022-12-08T03:41:33.999Z,0.00
2022-12-08T03:42:33.947Z,0.00
2022-12-08T03:43:33.928Z,0.00
2022-12-08T03:44:33.970Z,0.00
2022-12-08T03:45:33.898Z,0.00
2022-12-08T03:46:34.949Z,0.00
2022-12-08T03:47:33.896Z,0.00
2022-12-08T03:48:33.874Z,0.00
2022-12-08T03:49:33.878Z,0.00
2022-12-08T03:50:33.844Z,0.00
2022-12-08T03:51:33.834Z,0.00
2022-12-08T03:52:33.854Z,0.00
2022-12-08T03:53:33.804Z,0.00
2022-12-08T03:54:33.810Z,0.00
2022-12-08T03:55:33.786Z,0.00
2022-12-08T03:56:33.838Z,0.00
2022-12-08T03:57:33.801Z,0.00
2022-12-08T03:58:37.397Z,0.00
2022-12-08T03:59:33.757Z,0.00
2022-12-08T04:00:33.723Z,0.00
2022-12-08T04:01:33.785Z,0.00
2022-12-08T04:02:33.779Z,0.00
2022-12-08T04:03:33.704Z,0.00
2022-12-08T04:04:33.689Z,0.00
2022-12-08T04:05:33.684Z,0.00
2022-12-08T04:06:33.678Z,0.00
2022-12-08T04:07:33.682Z,0.00
2022-12-08T04:08:33.643Z,0.00
2022-12-08T04:09:33.634Z,0.00
2022-12-08T04:10:33.614Z,0.00
2022-12-08T04:11:33.615Z,0.00
2022-12-08T04:12:33.607Z,0.00
2022-12-08T04:13:33.602Z,0.00
2022-12-08T04:14:33.575Z,0.00
2022-12-08T04:15:33.576Z,0.00
2022-12-08T04:16:33.602Z,0.00
2022-12-08T04:17:33.562Z,0.00
2022-12-08T04:18:33.549Z,0.00
2022-12-08T04:19:33.515Z,0.00
2022-12-08T04:20:33.513Z,0.00
2022-12-08T04:21:33.502Z,0.00
2022-12-08T04:22:33.483Z,0.00
2022-12-08T04:23:33.496Z,0.00
2022-12-08T04:24:33.456Z,0.00
2022-12-08T04:25:33.468Z,0.00
2022-12-08T04:26:33.445Z,0.00
2022-12-08T04:27:33.428Z,0.00
2022-12-08T04:28:33.439Z,0.00
2022-12-08T04:29:33.414Z,0.00
2022-12-08T04:30:33.406Z,0.00
2022-12-08T04:31:33.497Z,0.00
2022-12-08T04:32:33.365Z,0.00
2022-12-08T04:33:33.399Z,0.00
2022-12-08T04:34:33.335Z,0.00
2022-12-08T04:35:33.331Z,0.00
2022-12-08T04:36:33.328Z,0.00
2022-12-08T04:37:33.324Z,0.00
2022-12-08T04:38:33.316Z,0.00
2022-12-08T04:39:33.293Z,0.00
2022-12-08T04:40:33.283Z,0.00
2022-12-08T04:41:33.284Z,0.00
2022-12-08T04:42:33.245Z,0.00
2022-12-08T04:43:33.267Z,0.00
2022-12-08T04:44:33.224Z,0.00
2022-12-08T04:45:33.232Z,0.00
2022-12-08T04:46:33.266Z,0.00
2022-12-08T04:47:33.218Z,0.00
2022-12-08T04:48:33.204Z,0.00
2022-12-08T04:49:33.176Z,0.00
2022-12-08T04:50:33.164Z,0.00
2022-12-08T04:51:33.152Z,0.00
2022-12-08T04:52:33.143Z,0.00
2022-12-08T04:53:33.152Z,0.00
2022-12-08T04:54:33.145Z,0.00
2022-12-08T04:55:33.120Z,0.00
2022-12-08T04:56:33.158Z,0.00
2022-12-08T04:57:33.105Z,0.00
2022-12-08T04:58:33.073Z,0.00
2022-12-08T04:59:33.092Z,0.00
2022-12-08T05:00:33.068Z,0.00
2022-12-08T05:01:33.177Z,0.00
2022-12-08T05:02:33.113Z,0.00
2022-12-08T05:03:33.050Z,0.00
2022-12-08T05:04:33.044Z,0.00
2022-12-08T05:05:33.014Z,0.00
2022-12-08T05:06:32.976Z,0.00
2022-12-08T05:07:32.992Z,0.00
2022-12-08T05:08:33.042Z,0.00
2022-12-08T05:09:32.980Z,0.00
2022-12-08T05:10:32.952Z,0.00
2022-12-08T05:11:32.932Z,0.00
2022-12-08T05:12:32.913Z,0.00
2022-12-08T05:13:32.920Z,0.00
2022-12-08T05:14:32.922Z,0.00
2022-12-08T05:15:32.912Z,0.00
2022-12-08T05:16:32.918Z,0.00
2022-12-08T05:17:32.880Z,0.00
2022-12-08T05:18:32.859Z,0.00
2022-12-08T05:19:32.852Z,0.00
2022-12-08T05:20:32.825Z,0.00
2022-12-08T05:21:33.064Z,0.00
2022-12-08T05:22:32.808Z,0.00
2022-12-08T05:23:32.812Z,0.00
2022-12-08T05:24:32.784Z,0.00
2022-12-08T05:25:32.782Z,0.00
2022-12-08T05:26:32.755Z,0.00
2022-12-08T05:27:32.767Z,0.00
2022-12-08T05:28:41.163Z,0.00
2022-12-08T05:29:33.753Z,0.00
2022-12-08T05:30:32.717Z,0.00
2022-12-08T05:31:32.827Z,0.00
2022-12-08T05:32:32.680Z,0.00
2022-12-08T05:33:32.692Z,0.00
2022-12-08T05:34:32.701Z,0.00
2022-12-08T05:35:32.668Z,0.00
2022-12-08T05:36:32.652Z,0.00
2022-12-08T05:37:32.666Z,0.00
2022-12-08T05:38:32.649Z,0.00
2022-12-08T05:39:32.642Z,0.00
2022-12-08T05:40:32.615Z,0.00
2022-12-08T05:41:32.593Z,0.00
2022-12-08T05:42:32.599Z,0.00
2022-12-08T05:43:32.580Z,0.00
2022-12-08T05:44:32.628Z,0.00
2022-12-08T05:45:32.645Z,0.00
2022-12-08T05:46:32.533Z,0.00
2022-12-08T05:47:36.053Z,0.00
2022-12-08T05:48:32.536Z,0.00
2022-12-08T05:49:32.513Z,0.00
2022-12-08T05:50:32.501Z,0.00
2022-12-08T05:51:32.469Z,0.00
2022-12-08T05:52:32.463Z,0.00
2022-12-08T05:53:32.512Z,0.00
2022-12-08T05:54:32.454Z,0.00
2022-12-08T05:55:32.465Z,0.00
2022-12-08T05:56:32.421Z,0.00
2022-12-08T05:57:32.423Z,0.00
2022-12-08T05:58:32.414Z,0.00
2022-12-08T05:59:32.423Z,0.00
2022-12-08T06:00:32.413Z,0.00
2022-12-08T06:01:32.499Z,0.00
2022-12-08T06:02:32.494Z,0.00
2022-12-08T06:03:32.439Z,0.00
2022-12-08T06:04:32.364Z,0.00
2022-12-08T06:05:32.340Z,0.00
2022-12-08T06:06:32.338Z,0.00
2022-12-08T06:07:32.342Z,0.00
2022-12-08T06:08:32.357Z,0.00
2022-12-08T06:09:32.282Z,0.00
2022-12-08T06:10:32.301Z,0.00
2022-12-08T06:11:32.261Z,0.00
2022-12-08T06:12:32.242Z,0.00
2022-12-08T06:13:32.242Z,0.00
2022-12-08T06:14:32.221Z,0.00
2022-12-08T06:15:32.229Z,0.00
2022-12-08T06:16:32.298Z,0.00
2022-12-08T06:17:32.202Z,0.00
2022-12-08T06:18:33.005Z,0.00
2022-12-08T06:19:32.161Z,0.00
2022-12-08T06:20:32.182Z,0.00
2022-12-08T06:21:32.141Z,0.00
2022-12-08T06:22:32.143Z,0.00
2022-12-08T06:23:32.130Z,0.00
2022-12-08T06:24:32.134Z,0.00
2022-12-08T06:25:32.092Z,0.00
2022-12-08T06:26:32.111Z,0.00
2022-12-08T06:27:32.076Z,0.00
2022-12-08T06:28:32.060Z,0.00
2022-12-08T06:29:32.062Z,0.00
2022-12-08T06:30:32.054Z,0.00
2022-12-08T06:31:32.102Z,0.00
2022-12-08T06:32:32.092Z,0.00
2022-12-08T06:33:32.002Z,0.00
2022-12-08T06:34:32.026Z,0.00
2022-12-08T06:35:31.982Z,0.00
2022-12-08T06:36:31.982Z,0.00
2022-12-08T06:37:31.974Z,0.00
2022-12-08T06:38:31.955Z,0.00
2022-12-08T06:39:31.941Z,0.00
2022-12-08T06:40:31.930Z,0.00
2022-12-08T06:41:31.931Z,0.00
2022-12-08T06:42:31.930Z,0.00
2022-12-08T06:43:31.895Z,0.00
2022-12-08T06:44:31.889Z,0.00
2022-12-08T06:45:31.873Z,0.00
2022-12-08T06:46:32.015Z,0.00
2022-12-08T06:47:31.837Z,0.00
2022-12-08T06:48:31.857Z,0.00
2022-12-08T06:49:31.831Z,0.00
2022-12-08T06:50:31.818Z,0.00
2022-12-08T06:51:31.813Z,0.00
2022-12-08T06:52:31.820Z,0.00
2022-12-08T06:53:31.787Z,0.00
2022-12-08T06:54:31.772Z,0.00
2022-12-08T06:56:32.779Z,0.00
2022-12-08T06:57:31.737Z,0.00
2022-12-08T06:58:31.742Z,0.00
2022-12-08T06:59:31.700Z,4.00
2022-12-08T07:00:31.700Z,4.00
2022-12-08T07:01:31.769Z,4.00
2022-12-08T07:02:31.787Z,0.00
2022-12-08T07:03:31.695Z,0.00
2022-12-08T07:04:31.667Z,0.00
2022-12-08T07:05:31.638Z,0.00
2022-12-08T07:06:31.638Z,4.00
2022-12-08T07:07:31.822Z,4.00
2022-12-08T07:08:31.707Z,4.00
2022-12-08T07:09:31.600Z,4.00
2022-12-08T07:10:31.592Z,4.00
2022-12-08T07:11:31.583Z,4.00
2022-12-08T07:12:31.579Z,4.00
2022-12-08T07:13:31.567Z,4.00
2022-12-08T07:14:31.548Z,4.00
2022-12-08T07:15:31.539Z,8.00
2022-12-08T07:16:31.578Z,8.00
2022-12-08T07:17:31.506Z,8.00
2022-12-08T07:18:31.527Z,8.00
2022-12-08T07:19:31.466Z,8.00
2022-12-08T07:20:31.478Z,12.00
2022-12-08T07:21:31.450Z,8.00
2022-12-08T07:22:31.482Z,8.00
2022-12-08T07:23:31.459Z,12.00
2022-12-08T07:24:31.447Z,8.00
2022-12-08T07:25:31.428Z,12.00
2022-12-08T07:26:31.407Z,12.00
2022-12-08T07:27:31.387Z,12.00
2022-12-08T07:28:31.400Z,16.00
2022-12-08T07:29:31.367Z,16.00
2022-12-08T07:30:31.411Z,16.00
2022-12-08T07:31:31.360Z,12.00
2022-12-08T07:32:31.347Z,16.00
2022-12-08T07:33:31.329Z,16.00
2022-12-08T07:34:31.331Z,16.00
2022-12-08T07:35:31.327Z,16.00
2022-12-08T07:36:31.296Z,20.00
2022-12-08T07:37:31.292Z,20.00
2022-12-08T07:38:31.268Z,16.00
2022-12-08T07:39:31.277Z,24.00
2022-12-08T07:40:31.259Z,28.00
2022-12-08T07:41:31.227Z,28.00
2022-12-08T07:42:31.261Z,28.00
2022-12-08T07:43:31.211Z,28.00
2022-12-08T07:44:31.209Z,28.00
2022-12-08T07:45:31.903Z,28.00
2022-12-08T07:46:31.243Z,32.00
2022-12-08T07:47:31.158Z,32.00
2022-12-08T07:48:31.159Z,32.00
2022-12-08T07:49:31.139Z,32.00
2022-12-08T07:50:31.216Z,32.00
2022-12-08T07:51:31.135Z,36.00
2022-12-08T07:52:31.129Z,40.00
2022-12-08T07:53:31.089Z,40.00
2022-12-08T07:54:31.135Z,40.00
2022-12-08T07:55:31.091Z,44.00
2022-12-08T07:56:31.089Z,40.00
2022-12-08T07:57:31.060Z,44.00
2022-12-08T07:58:31.056Z,44.00
2022-12-08T07:59:31.029Z,44.00
2022-12-08T08:00:31.052Z,48.00
2022-12-08T08:01:31.185Z,48.00
2022-12-08T08:02:31.187Z,44.00
2022-12-08T08:03:30.985Z,48.00
2022-12-08T08:04:31.018Z,52.00
2022-12-08T08:05:30.961Z,64.00
2022-12-08T08:06:30.981Z,56.00
2022-12-08T08:07:30.943Z,64.00
2022-12-08T08:08:31.024Z,68.00
2022-12-08T08:09:30.925Z,76.00
2022-12-08T08:10:30.928Z,88.00
2022-12-08T08:11:30.906Z,104.00
2022-12-08T08:12:32.358Z,96.00
2022-12-08T08:13:30.878Z,100.00
2022-12-08T08:14:30.867Z,104.00
2022-12-08T08:15:31.005Z,104.00
2022-12-08T08:16:36.573Z,100.00
2022-12-08T08:17:32.017Z,92.00
2022-12-08T08:18:30.827Z,92.00
2022-12-08T08:19:30.805Z,88.00
2022-12-08T08:20:30.818Z,92.00
2022-12-08T08:21:45.416Z,92.00
2022-12-08T08:22:31.788Z,108.00
2022-12-08T08:23:30.782Z,108.00
2022-12-08T08:24:30.764Z,124.00
2022-12-08T08:25:30.758Z,132.00
2022-12-08T08:26:30.736Z,140.00
2022-12-08T08:27:30.725Z,140.00
2022-12-08T08:28:30.729Z,136.00
2022-12-08T08:29:30.701Z,136.00
2022-12-08T08:30:30.709Z,156.00
2022-12-08T08:31:30.703Z,168.00
2022-12-08T08:32:30.682Z,180.00
2022-12-08T08:33:30.656Z,200.00
2022-12-08T08:34:30.648Z,184.00
2022-12-08T08:35:30.654Z,180.00
2022-12-08T08:36:30.625Z,172.00
2022-12-08T08:37:30.607Z,164.00
2022-12-08T08:38:30.616Z,172.00
2022-12-08T08:39:30.593Z,172.00
2022-12-08T08:40:30.585Z,180.00
2022-12-08T08:41:30.590Z,164.00
2022-12-08T08:42:30.565Z,176.00
2022-12-08T08:43:37.636Z,152.00
2022-12-08T08:44:31.564Z,164.00
2022-12-08T08:45:30.516Z,172.00
2022-12-08T08:46:30.640Z,192.00
2022-12-08T08:47:30.506Z,204.00
2022-12-08T08:48:30.519Z,212.00
2022-12-08T08:49:30.476Z,200.00
2022-12-08T08:50:35.899Z,228.00
2022-12-08T08:51:31.476Z,224.00
2022-12-08T08:52:30.453Z,248.00
2022-12-08T08:53:30.427Z,248.00
2022-12-08T08:54:30.486Z,252.00
2022-12-08T08:55:30.405Z,260.00
2022-12-08T08:56:30.426Z,248.00
2022-12-08T08:57:30.414Z,268.00
2022-12-08T08:58:30.435Z,256.00
2022-12-08T08:59:30.369Z,252.00
2022-12-08T09:00:30.384Z,252.00
2022-12-08T09:01:30.678Z,264.00
2022-12-08T09:02:30.338Z,280.00
2022-12-08T09:03:30.351Z,284.00
2022-12-08T09:04:30.452Z,272.00
2022-12-08T09:05:30.305Z,296.00
2022-12-08T09:06:30.406Z,308.00
2022-12-08T09:07:30.283Z,308.00
2022-12-08T09:08:30.367Z,304.00
2022-12-08T09:09:30.337Z,276.00
2022-12-08T09:10:30.258Z,272.00
2022-12-08T09:11:30.243Z,256.00
2022-12-08T09:12:30.234Z,248.00
2022-12-08T09:13:30.214Z,252.00
2022-12-08T09:14:30.218Z,272.00
2022-12-08T09:15:30.205Z,288.00
2022-12-08T09:16:30.237Z,296.00
2022-12-08T09:17:30.170Z,304.00
2022-12-08T09:18:30.174Z,312.00
2022-12-08T09:19:30.149Z,308.00
2022-12-08T09:20:30.147Z,324.00
2022-12-08T09:21:30.114Z,320.00
2022-12-08T09:22:30.125Z,308.00
2022-12-08T09:23:35.189Z,280.00
2022-12-08T09:24:31.090Z,292.00
2022-12-08T09:25:30.075Z,300.00
2022-12-08T09:26:30.067Z,284.00
2022-12-08T09:27:30.067Z,260.00
2022-12-08T09:28:30.055Z,304.00
2022-12-08T09:29:35.649Z,288.00
2022-12-08T09:30:31.026Z,308.00
2022-12-08T09:31:30.074Z,312.00
2022-12-08T09:32:30.015Z,312.00
2022-12-08T09:33:29.999Z,340.00
2022-12-08T09:34:29.984Z,348.00
2022-12-08T09:35:29.993Z,356.00
2022-12-08T09:36:29.955Z,392.00
2022-12-08T09:37:29.946Z,392.00
2022-12-08T09:38:29.934Z,420.00
2022-12-08T09:39:29.914Z,440.00
2022-12-08T09:40:29.974Z,436.00
2022-12-08T09:41:36.526Z,440.00
2022-12-08T09:42:30.917Z,432.00
2022-12-08T09:43:29.907Z,432.00
2022-12-08T09:44:29.909Z,444.00
2022-12-08T09:45:29.863Z,444.00
2022-12-08T09:46:29.912Z,440.00
2022-12-08T09:47:35.470Z,428.00
2022-12-08T09:48:30.982Z,436.00
2022-12-08T09:49:29.811Z,400.00
2022-12-08T09:50:29.803Z,404.00
2022-12-08T09:51:29.786Z,384.00
2022-12-08T09:52:29.783Z,400.00
2022-12-08T09:53:35.510Z,388.00
2022-12-08T09:54:30.774Z,388.00
2022-12-08T09:55:29.754Z,396.00
2022-12-08T09:56:29.735Z,412.00
2022-12-08T09:57:29.735Z,408.00
2022-12-08T09:58:29.726Z,436.00
2022-12-08T09:59:29.775Z,424.00
2022-12-08T10:00:29.694Z,412.00
2022-12-08T10:01:29.766Z,420.00
2022-12-08T10:02:29.682Z,444.00
2022-12-08T10:03:29.723Z,460.00
2022-12-08T10:04:29.720Z,452.00
2022-12-08T10:05:29.690Z,436.00
2022-12-08T10:06:29.642Z,468.00
2022-12-08T10:07:29.615Z,452.00
2022-12-08T10:08:29.722Z,456.00
2022-12-08T10:09:29.592Z,460.00
2022-12-08T10:10:29.603Z,480.00
2022-12-08T10:11:29.573Z,468.00
2022-12-08T10:12:29.563Z,500.00
2022-12-08T10:13:29.544Z,532.00
2022-12-08T10:14:29.563Z,572.00
2022-12-08T10:15:29.543Z,568.00
2022-12-08T10:16:30.289Z,560.00
2022-12-08T10:17:29.504Z,584.00
2022-12-08T10:18:29.511Z,604.00
2022-12-08T10:19:29.472Z,636.00
2022-12-08T10:20:29.483Z,624.00
2022-12-08T10:21:29.463Z,616.00
2022-12-08T10:22:29.474Z,612.00
2022-12-08T10:23:29.446Z,612.00
2022-12-08T10:24:29.443Z,588.00
2022-12-08T10:25:29.412Z,588.00
2022-12-08T10:26:29.424Z,620.00
2022-12-08T10:27:29.397Z,612.00
2022-12-08T10:28:29.393Z,604.00
2022-12-08T10:29:29.363Z,596.00
2022-12-08T10:30:29.363Z,592.00
2022-12-08T10:31:29.419Z,588.00
2022-12-08T10:32:29.332Z,576.00
2022-12-08T10:33:29.423Z,584.00
2022-12-08T10:34:29.315Z,588.00
2022-12-08T10:35:29.311Z,576.00
2022-12-08T10:36:29.323Z,588.00
2022-12-08T10:37:29.299Z,632.00
2022-12-08T10:38:29.273Z,628.00
2022-12-08T10:39:29.643Z,632.00
2022-12-08T10:40:29.251Z,632.00
2022-12-08T10:41:29.231Z,600.00
2022-12-08T10:42:29.251Z,616.00
2022-12-08T10:43:29.215Z,580.00
2022-12-08T10:44:29.195Z,568.00
2022-12-08T10:45:29.194Z,560.00
2022-12-08T10:46:29.279Z,560.00
2022-12-08T10:47:29.183Z,560.00
2022-12-08T10:48:29.160Z,568.00
2022-12-08T10:49:29.151Z,552.00
2022-12-08T10:50:29.134Z,540.00
2022-12-08T10:51:29.131Z,548.00
2022-12-08T10:52:29.127Z,524.00
2022-12-08T10:53:29.120Z,528.00
2022-12-08T10:54:29.080Z,532.00
2022-12-08T10:55:29.080Z,520.00
2022-12-08T10:56:29.071Z,504.00
2022-12-08T10:57:29.072Z,508.00
2022-12-08T10:58:29.072Z,512.00
2022-12-08T10:59:29.055Z,520.00
2022-12-08T11:00:29.206Z,544.00
2022-12-08T11:01:29.081Z,544.00
2022-12-08T11:02:29.073Z,520.00
2022-12-08T11:03:28.992Z,544.00
2022-12-08T11:04:28.992Z,540.00
2022-12-08T11:05:28.973Z,540.00
2022-12-08T11:06:28.954Z,520.00
2022-12-08T11:07:28.968Z,508.00
2022-12-08T11:08:29.027Z,504.00
2022-12-08T11:09:28.946Z,476.00
2022-12-08T11:10:28.902Z,452.00
2022-12-08T11:11:29.578Z,488.00
2022-12-08T11:12:28.898Z,492.00
2022-12-08T11:13:28.890Z,460.00
2022-12-08T11:14:28.892Z,400.00
2022-12-08T11:15:28.889Z,408.00
2022-12-08T11:16:28.898Z,388.00
2022-12-08T11:17:28.831Z,332.00
2022-12-08T11:18:28.818Z,316.00
2022-12-08T11:19:28.825Z,364.00
2022-12-08T11:20:28.810Z,380.00
2022-12-08T11:21:28.802Z,408.00
2022-12-08T11:22:28.773Z,392.00
2022-12-08T11:23:28.762Z,384.00
2022-12-08T11:24:31.184Z,404.00
2022-12-08T11:25:28.758Z,440.00
2022-12-08T11:26:28.725Z,392.00
2022-12-08T11:27:28.732Z,400.00
2022-12-08T11:28:28.720Z,408.00
2022-12-08T11:29:28.724Z,412.00
2022-12-08T11:30:28.697Z,468.00
2022-12-08T11:31:28.777Z,440.00
2022-12-08T11:32:28.669Z,472.00
2022-12-08T11:33:28.661Z,484.00
2022-12-08T11:34:28.742Z,428.00
2022-12-08T11:35:28.640Z,428.00
2022-12-08T11:36:28.732Z,448.00
2022-12-08T11:37:34.312Z,460.00
2022-12-08T11:38:29.601Z,488.00
2022-12-08T11:39:28.597Z,496.00
2022-12-08T11:40:28.569Z,516.00
2022-12-08T11:41:28.570Z,500.00
2022-12-08T11:42:28.551Z,456.00
2022-12-08T11:43:28.546Z,484.00
2022-12-08T11:44:28.520Z,496.00
2022-12-08T11:45:28.549Z,500.00
2022-12-08T11:46:28.563Z,492.00
2022-12-08T11:47:28.497Z,496.00
2022-12-08T11:48:28.486Z,460.00
2022-12-08T11:49:28.470Z,464.00
2022-12-08T11:50:28.498Z,488.00
2022-12-08T11:51:28.450Z,488.00
2022-12-08T11:52:28.446Z,520.00
2022-12-08T11:53:28.449Z,488.00
2022-12-08T11:54:28.416Z,432.00
2022-12-08T11:55:29.626Z,404.00
2022-12-08T11:56:28.409Z,404.00
2022-12-08T11:57:28.389Z,396.00
2022-12-08T11:58:28.426Z,400.00
2022-12-08T11:59:28.357Z,388.00
2022-12-08T12:00:28.338Z,416.00
2022-12-08T12:01:28.362Z,400.00
2022-12-08T12:02:28.370Z,388.00
2022-12-08T12:03:28.375Z,396.00
2022-12-08T12:04:28.299Z,396.00
2022-12-08T12:05:40.141Z,416.00
2022-12-08T12:07:29.257Z,392.00
2022-12-08T12:08:28.306Z,416.00
2022-12-08T12:09:28.264Z,392.00
2022-12-08T12:10:28.238Z,356.00
2022-12-08T12:11:28.226Z,356.00
2022-12-08T12:12:28.219Z,348.00
2022-12-08T12:13:28.218Z,352.00
2022-12-08T12:14:28.208Z,356.00
2022-12-08T12:15:28.190Z,352.00
2022-12-08T12:16:28.251Z,372.00
2022-12-08T12:17:28.158Z,356.00
2022-12-08T12:18:28.150Z,340.00
2022-12-08T12:19:28.146Z,320.00
2022-12-08T12:20:28.130Z,316.00
2022-12-08T12:21:28.119Z,308.00
2022-12-08T12:22:28.127Z,288.00
2022-12-08T12:23:28.086Z,268.00
2022-12-08T12:24:32.830Z,248.00
2022-12-08T12:25:29.067Z,248.00
2022-12-08T12:26:28.078Z,252.00
2022-12-08T12:27:28.078Z,268.00
2022-12-08T12:28:28.079Z,272.00
2022-12-08T12:29:28.019Z,276.00
2022-12-08T12:30:28.055Z,272.00
2022-12-08T12:31:28.018Z,268.00
2022-12-08T12:32:28.059Z,260.00
2022-12-08T12:33:28.007Z,260.00
2022-12-08T12:34:28.007Z,284.00
2022-12-08T12:35:27.966Z,308.00
2022-12-08T12:36:28.055Z,368.00
2022-12-08T12:37:27.926Z,376.00
2022-12-08T12:38:27.932Z,372.00
2022-12-08T12:39:27.927Z,412.00
2022-12-08T12:40:27.899Z,504.00
2022-12-08T12:41:27.886Z,552.00
2022-12-08T12:42:27.866Z,532.00
2022-12-08T12:43:27.898Z,512.00
2022-12-08T12:44:27.855Z,536.00
2022-12-08T12:45:27.846Z,580.00
2022-12-08T12:46:27.878Z,600.00
2022-12-08T12:47:27.831Z,616.00
2022-12-08T12:48:27.815Z,652.00
2022-12-08T12:49:27.815Z,684.00
2022-12-08T12:50:27.793Z,700.00
2022-12-08T12:51:27.786Z,680.00
2022-12-08T12:52:27.775Z,644.00
2022-12-08T12:53:27.755Z,644.00
2022-12-08T12:54:27.760Z,640.00
2022-12-08T12:55:27.719Z,608.00
2022-12-08T12:56:27.715Z,580.00
2022-12-08T12:57:27.715Z,548.00
2022-12-08T12:58:27.687Z,540.00
2022-12-08T12:59:27.715Z,536.00